createdAt,value
2023-03-30T00:02:18.603Z,99794.11
2023-03-30T00:07:21.234Z,99782.96
2023-03-30T00:12:24.307Z,99780.77
2023-03-30T00:17:27.097Z,99776.33
2023-03-30T00:22:29.743Z,99774.50
2023-03-30T00:27:32.737Z,99773.34
2023-03-30T00:32:35.775Z,99767.88
2023-03-30T00:37:39.260Z,99766.05
2023-03-30T00:42:41.924Z,99759.39
2023-03-30T00:48:15.321Z,99755.66
2023-03-30T00:53:22.804Z,99761.94
2023-03-30T00:58:26.427Z,99750.04
2023-03-30T01:03:35.187Z,99747.05
2023-03-30T01:08:39.132Z,99743.48
2023-03-30T01:13:45.725Z,99736.80
2023-03-30T01:18:58.002Z,99733.65
2023-03-30T01:24:37.700Z,99732.77
2023-03-30T01:29:40.257Z,99728.84
2023-03-30T01:35:17.142Z,99727.54
2023-03-30T01:40:32.155Z,99722.09
2023-03-30T01:46:01.540Z,99722.01
2023-03-30T01:51:10.701Z,99719.19
2023-03-30T01:56:41.427Z,99712.63
2023-03-30T02:01:50.264Z,99707.06
2023-03-30T02:06:58.587Z,99714.13
2023-03-30T02:12:03.458Z,99708.65
2023-03-30T02:17:09.094Z,99708.20
2023-03-30T02:22:13.662Z,99707.56
2023-03-30T02:27:16.805Z,99706.90
2023-03-30T02:32:26.626Z,99706.58
2023-03-30T02:37:47.190Z,99702.89
2023-03-30T02:43:07.902Z,99704.16
2023-03-30T02:48:28.523Z,99696.65
2023-03-30T02:53:40.123Z,99691.45
2023-03-30T02:58:49.446Z,99687.66
2023-03-30T03:03:55.571Z,99684.94
2023-03-30T03:08:58.956Z,99684.27
2023-03-30T03:14:01.813Z,99676.27
2023-03-30T03:19:04.720Z,99672.75
2023-03-30T03:24:08.118Z,99671.30
2023-03-30T03:29:11.058Z,99670.72
2023-03-30T03:34:13.664Z,99667.92
2023-03-30T03:39:16.241Z,99658.29
2023-03-30T03:44:18.844Z,99660.05
2023-03-30T03:49:21.697Z,99656.66
2023-03-30T03:54:24.486Z,99647.89
2023-03-30T03:59:28.038Z,99643.31
2023-03-30T04:04:30.921Z,99634.49
2023-03-30T04:09:33.586Z,99633.84
2023-03-30T04:14:36.266Z,99632.73
2023-03-30T04:19:38.874Z,99635.59
2023-03-30T04:24:41.806Z,99638.98
2023-03-30T04:29:44.735Z,99636.52
2023-03-30T04:34:47.610Z,99627.84
2023-03-30T04:39:50.662Z,99624.01
2023-03-30T04:44:53.274Z,99621.55
2023-03-30T04:49:56.103Z,99619.62
2023-03-30T04:54:58.831Z,99610.46
2023-03-30T05:00:01.525Z,99606.27
2023-03-30T05:05:04.429Z,99603.51
2023-03-30T05:10:07.892Z,99601.47
2023-03-30T05:15:11.115Z,99604.06
2023-03-30T05:20:15.009Z,99605.75
2023-03-30T05:25:17.777Z,99605.50
2023-03-30T05:30:20.538Z,99602.83
2023-03-30T05:35:23.159Z,99598.99
2023-03-30T05:40:25.748Z,99593.45
2023-03-30T05:45:28.456Z,99590.74
2023-03-30T05:50:31.146Z,99592.66
2023-03-30T05:55:34.084Z,99592.94
2023-03-30T06:00:37.313Z,99588.81
2023-03-30T06:05:41.842Z,99592.45
2023-03-30T06:10:53.048Z,99593.55
2023-03-30T06:15:56.158Z,99587.30
2023-03-30T06:20:58.959Z,99588.93
2023-03-30T06:26:01.679Z,99584.34
2023-03-30T06:31:11.996Z,99585.12
2023-03-30T06:36:14.928Z,99583.66
2023-03-30T06:41:17.610Z,99580.91
2023-03-30T06:46:20.655Z,99577.79
2023-03-30T06:51:23.360Z,99577.04
2023-03-30T06:56:26.655Z,99575.85
2023-03-30T07:01:29.357Z,99583.20
2023-03-30T07:06:32.143Z,99580.55
2023-03-30T07:11:34.915Z,99576.34
2023-03-30T07:16:38.441Z,99583.06
2023-03-30T07:21:41.098Z,99584.46
2023-03-30T07:26:43.705Z,99585.14
2023-03-30T07:31:46.434Z,99584.58
2023-03-30T07:36:49.111Z,99583.13
2023-03-30T07:41:51.777Z,99576.86
2023-03-30T07:46:54.530Z,99572.30
2023-03-30T07:51:57.319Z,99568.95
2023-03-30T07:57:00.384Z,99563.11
2023-03-30T08:02:04.668Z,99557.88
2023-03-30T08:07:07.943Z,99559.29
2023-03-30T08:12:10.891Z,99552.98
2023-03-30T08:17:13.596Z,99551.84
2023-03-30T08:22:16.324Z,99548.03
2023-03-30T08:27:19.008Z,99540.23
2023-03-30T08:32:21.680Z,99537.64
2023-03-30T08:37:25.060Z,99531.69
2023-03-30T08:42:33.418Z,99527.41
2023-03-30T08:47:46.041Z,99526.17
2023-03-30T08:52:52.542Z,99526.61
2023-03-30T08:58:18.751Z,99523.61
2023-03-30T09:03:36.992Z,99516.72
2023-03-30T09:08:40.680Z,99511.97
2023-03-30T09:13:45.627Z,99505.21
2023-03-30T09:18:57.293Z,99498.87
2023-03-30T09:24:06.374Z,99492.44
2023-03-30T09:29:19.445Z,99481.85
2023-03-30T09:34:27.863Z,99473.58
2023-03-30T09:39:33.903Z,99469.65
2023-03-30T09:44:40.315Z,99467.62
2023-03-30T09:49:43.407Z,99459.20
2023-03-30T09:54:46.440Z,99452.95
2023-03-30T09:59:49.489Z,99453.00
2023-03-30T10:04:58.311Z,99445.39
2023-03-30T10:10:14.213Z,99438.04
2023-03-30T10:15:18.892Z,99431.30
2023-03-30T10:20:27.276Z,99421.55
2023-03-30T10:25:33.093Z,99412.46
2023-03-30T10:30:36.415Z,99405.40
2023-03-30T10:35:39.198Z,99403.44
2023-03-30T10:40:44.028Z,99397.11
2023-03-30T10:45:55.366Z,99389.88
2023-03-30T10:51:24.519Z,99382.80
2023-03-30T10:56:46.202Z,99374.66
2023-03-30T11:02:20.833Z,99367.52
2023-03-30T11:07:32.703Z,99354.80
2023-03-30T11:12:40.344Z,99347.92
2023-03-30T11:17:53.441Z,99347.89
2023-03-30T11:23:11.231Z,99340.73
2023-03-30T11:28:22.724Z,99350.40
2023-03-30T11:33:42.368Z,99359.73
2023-03-30T11:38:55.760Z,99351.13
2023-03-30T11:43:58.385Z,99337.77
2023-03-30T11:49:37.520Z,99333.09
2023-03-30T11:55:01.744Z,99326.69
2023-03-30T12:00:26.646Z,99314.77
2023-03-30T12:05:39.232Z,99305.10
2023-03-30T12:10:45.248Z,99285.48
2023-03-30T12:16:13.280Z,99283.58
2023-03-30T12:21:40.752Z,99280.45
2023-03-30T12:26:54.990Z,99272.21
2023-03-30T12:32:18.878Z,99268.77
2023-03-30T12:37:33.386Z,99275.21
2023-03-30T12:49:59.449Z,99285.26
2023-03-30T12:55:23.980Z,99283.23
2023-03-30T13:00:44.775Z,99270.31
2023-03-30T13:05:52.062Z,99272.39
2023-03-30T13:11:07.171Z,99272.42
2023-03-30T13:16:12.164Z,99268.97
2023-03-30T13:21:21.598Z,99250.96
2023-03-30T13:26:34.916Z,99244.77
2023-03-30T13:31:47.057Z,99242.48
2023-03-30T13:37:07.588Z,99238.25
2023-03-30T13:42:37.416Z,99226.09
2023-03-30T13:48:05.599Z,99213.48
2023-03-30T13:53:10.706Z,99210.27
2023-03-30T13:58:20.766Z,99197.45
2023-03-30T14:03:47.686Z,99195.54
2023-03-30T14:09:24.227Z,99181.09
2023-03-30T14:28:54.647Z,99148.95
2023-03-30T14:33:57.357Z,99139.94
2023-03-30T14:45:34.463Z,99143.13
2023-03-30T14:50:37.220Z,99135.80
2023-03-30T14:55:40.011Z,99130.95
2023-03-30T15:00:43.546Z,99117.98
2023-03-30T15:05:46.284Z,99097.95
2023-03-30T15:10:54.807Z,99082.73
2023-03-30T15:15:59.751Z,99078.93
2023-03-30T15:21:02.501Z,99074.61
2023-03-30T15:26:07.112Z,99072.73
2023-03-30T15:31:14.623Z,99072.91
2023-03-30T15:36:22.742Z,99059.55
2023-03-30T15:41:47.366Z,99047.92
2023-03-30T15:46:52.426Z,99037.90
2023-03-30T15:52:01.733Z,99033.31
2023-03-30T15:57:13.638Z,99025.95
2023-03-30T16:02:18.126Z,99013.98
2023-03-30T16:07:24.672Z,99005.44
2023-03-30T16:12:29.581Z,98998.86
2023-03-30T16:17:33.934Z,98991.20
2023-03-30T16:22:36.600Z,98981.09
2023-03-30T16:27:39.212Z,98977.52
2023-03-30T16:32:41.731Z,98971.66
2023-03-30T16:37:44.267Z,98964.20
2023-03-30T16:42:46.810Z,98950.81
2023-03-30T16:47:49.329Z,98944.61
2023-03-30T16:52:52.031Z,98945.33
2023-03-30T16:57:54.640Z,98935.20
2023-03-30T17:02:57.748Z,98924.56
2023-03-30T17:08:06.237Z,98914.96
2023-03-30T17:13:09.308Z,98906.04
2023-03-30T17:18:21.269Z,98901.95
2023-03-30T17:23:26.297Z,98903.66
2023-03-30T17:28:34.483Z,98903.33
2023-03-30T17:33:37.111Z,98885.09
2023-03-30T17:38:42.824Z,98884.42
2023-03-30T17:43:47.981Z,98908.90
2023-03-30T17:48:53.614Z,98901.74
2023-03-30T17:53:56.264Z,98901.55
2023-03-30T17:58:59.191Z,98895.05
2023-03-30T18:04:01.788Z,98883.67
2023-03-30T18:09:09.646Z,98875.22
2023-03-30T18:14:12.363Z,98871.23
2023-03-30T18:19:15.199Z,98866.81
2023-03-30T18:24:17.972Z,98863.52
2023-03-30T18:29:20.653Z,98863.75
2023-03-30T18:34:23.560Z,98854.79
2023-03-30T18:39:26.108Z,98856.75
2023-03-30T18:44:28.639Z,98853.48
2023-03-30T18:49:31.145Z,98850.95
2023-03-30T18:54:33.696Z,98840.02
2023-03-30T18:59:38.405Z,98821.92
2023-03-30T19:04:42.915Z,98813.48
2023-03-30T19:09:45.725Z,98812.48
2023-03-30T19:14:48.415Z,98812.95
2023-03-30T19:19:50.968Z,98804.65
2023-03-30T19:24:53.519Z,98797.23
2023-03-30T19:29:57.339Z,98790.11
2023-03-30T19:34:59.915Z,98793.02
2023-03-30T19:40:05.915Z,98791.59
2023-03-30T19:45:08.762Z,98788.77
2023-03-30T19:50:15.541Z,98786.81
2023-03-30T19:55:19.325Z,98777.90
2023-03-30T20:00:22.614Z,98772.78
2023-03-30T20:05:25.418Z,98766.71
2023-03-30T20:10:28.030Z,98768.36
2023-03-30T20:15:30.814Z,98763.27
2023-03-30T20:20:34.622Z,98749.42
2023-03-30T20:25:37.205Z,98748.25
2023-03-30T20:30:39.725Z,98736.81
2023-03-30T20:35:43.011Z,98738.76
2023-03-30T20:40:57.252Z,98734.26
2023-03-30T20:46:03.568Z,98732.14
2023-03-30T20:51:08.610Z,98722.80
2023-03-30T20:56:11.720Z,98718.48
2023-03-30T21:01:25.158Z,98714.48
2023-03-30T21:06:30.012Z,98703.92
2023-03-30T21:11:35.221Z,98698.15
2023-03-30T21:16:38.017Z,98684.67
2023-03-30T21:21:40.949Z,98687.21
2023-03-30T21:26:43.581Z,98681.09
2023-03-30T21:31:46.126Z,98680.52
2023-03-30T21:36:48.746Z,98684.42
2023-03-30T21:41:51.400Z,98679.20
2023-03-30T21:46:54.068Z,98675.32
2023-03-30T21:51:56.964Z,98675.16
2023-03-30T21:56:59.501Z,98662.73
2023-03-30T22:02:02.117Z,98665.39
2023-03-30T22:07:04.667Z,98657.90
2023-03-30T22:12:07.610Z,98653.65
2023-03-30T22:17:11.354Z,98653.08
2023-03-30T22:22:13.836Z,98657.08
2023-03-30T22:27:16.332Z,98660.33
2023-03-30T22:32:20.273Z,98671.55
2023-03-30T22:37:24.202Z,98678.35
2023-03-30T22:42:27.093Z,98639.39
2023-03-30T22:47:29.645Z,98638.58
2023-03-30T22:52:32.561Z,98652.32
2023-03-30T22:57:35.550Z,98669.71
2023-03-30T23:02:38.792Z,98665.09
2023-03-30T23:07:44.164Z,98664.02
2023-03-30T23:12:46.943Z,98662.09
2023-03-30T23:17:49.539Z,98663.94
2023-03-30T23:22:52.079Z,98666.77
2023-03-30T23:27:54.631Z,98668.46
2023-03-30T23:32:57.506Z,98676.09
2023-03-30T23:38:00.267Z,98675.64
2023-03-30T23:43:02.897Z,98680.17
2023-03-30T23:48:05.986Z,98681.95
2023-03-30T23:53:09.380Z,98689.35
2023-03-30T23:58:11.933Z,98686.41
